sensor_id;sensor_type;location;lat;lon;timestamp;pressure;altitude;pressure_sealevel;temperature;humidity
44349;BME280;30068;50.986;4.564;2023-06-24T00:02:00;102506.66;;;26.78;52.74
44349;BME280;30068;50.986;4.564;2023-06-24T00:04:26;102492.94;;;26.78;52.77
44349;BME280;30068;50.986;4.564;2023-06-24T00:06:51;102498.44;;;26.78;52.63
44349;BME280;30068;50.986;4.564;2023-06-24T00:09:17;102505.78;;;26.78;52.80
44349;BME280;30068;50.986;4.564;2023-06-24T00:11:43;102504.94;;;26.77;52.50
44349;BME280;30068;50.986;4.564;2023-06-24T00:14:08;102509.56;;;26.77;52.66
44349;BME280;30068;50.986;4.564;2023-06-24T00:16:33;102505.97;;;26.76;52.81
44349;BME280;30068;50.986;4.564;2023-06-24T00:18:58;102504.09;;;26.77;52.67
44349;BME280;30068;50.986;4.564;2023-06-24T00:21:26;102504.28;;;26.75;52.67
44349;BME280;30068;50.986;4.564;2023-06-24T00:23:57;102500.72;;;26.74;52.54
44349;BME280;30068;50.986;4.564;2023-06-24T00:26:23;102501.75;;;26.73;52.87
44349;BME280;30068;50.986;4.564;2023-06-24T00:28:48;102504.50;;;26.73;52.87
44349;BME280;30068;50.986;4.564;2023-06-24T00:31:13;102502.78;;;26.72;52.66
44349;BME280;30068;50.986;4.564;2023-06-24T00:33:39;102506.38;;;26.73;52.90
44349;BME280;30068;50.986;4.564;2023-06-24T00:36:04;102508.28;;;26.72;52.64
44349;BME280;30068;50.986;4.564;2023-06-24T00:38:30;102505.72;;;26.71;52.75
44349;BME280;30068;50.986;4.564;2023-06-24T00:40:57;102510.16;;;26.72;52.61
44349;BME280;30068;50.986;4.564;2023-06-24T00:43:23;102499.38;;;26.70;52.63
44349;BME280;30068;50.986;4.564;2023-06-24T00:45:48;102502.13;;;26.70;52.62
44349;BME280;30068;50.986;4.564;2023-06-24T00:48:13;102503.16;;;26.69;52.80
44349;BME280;30068;50.986;4.564;2023-06-24T00:50:39;102502.13;;;26.70;52.54
44349;BME280;30068;50.986;4.564;2023-06-24T00:53:07;102502.31;;;26.69;52.49
44349;BME280;30068;50.986;4.564;2023-06-24T00:55:32;102499.56;;;26.69;52.79
44349;BME280;30068;50.986;4.564;2023-06-24T00:57:57;102503.38;;;26.68;52.57
44349;BME280;30068;50.986;4.564;2023-06-24T01:00:24;102506.13;;;26.68;52.81
44349;BME280;30068;50.986;4.564;2023-06-24T01:02:51;102507.16;;;26.67;52.64
44349;BME280;30068;50.986;4.564;2023-06-24T01:05:17;102504.41;;;26.67;52.84
44349;BME280;30068;50.986;4.564;2023-06-24T01:07:42;102507.16;;;26.67;53.05
44349;BME280;30068;50.986;4.564;2023-06-24T01:10:08;102503.56;;;26.66;52.74
44349;BME280;30068;50.986;4.564;2023-06-24T01:12:34;102508.38;;;26.64;52.84
44349;BME280;30068;50.986;4.564;2023-06-24T01:15:00;102502.03;;;26.64;52.77
44349;BME280;30068;50.986;4.564;2023-06-24T01:17:41;102500.16;;;26.64;52.69
44349;BME280;30068;50.986;4.564;2023-06-24T01:22:54;102503.94;;;26.63;52.87
44349;BME280;30068;50.986;4.564;2023-06-24T01:25:31;102504.13;;;26.62;52.63
44349;BME280;30068;50.986;4.564;2023-06-24T01:28:15;102496.97;;;26.61;52.67
44349;BME280;30068;50.986;4.564;2023-06-24T01:33:34;102500.06;;;26.58;52.68
44349;BME280;30068;50.986;4.564;2023-06-24T01:36:01;102504.69;;;26.57;52.93
44349;BME280;30068;50.986;4.564;2023-06-24T01:38:33;102501.97;;;26.57;52.66
44349;BME280;30068;50.986;4.564;2023-06-24T01:41:01;102498.38;;;26.57;52.59
44349;BME280;30068;50.986;4.564;2023-06-24T01:43:28;102500.25;;;26.56;52.34
44349;BME280;30068;50.986;4.564;2023-06-24T01:45:53;102493.94;;;26.56;52.28
44349;BME280;30068;50.986;4.564;2023-06-24T01:48:30;102491.19;;;26.56;52.58
44349;BME280;30068;50.986;4.564;2023-06-24T01:51:04;102495.81;;;26.55;52.86
44349;BME280;30068;50.986;4.564;2023-06-24T01:53:32;102486.75;;;26.55;52.55
44349;BME280;30068;50.986;4.564;2023-06-24T01:55:59;102487.81;;;26.54;52.36
44349;BME280;30068;50.986;4.564;2023-06-24T01:58:25;102482.34;;;26.54;52.29
44349;BME280;30068;50.986;4.564;2023-06-24T02:00:50;102480.63;;;26.53;52.44
44349;BME280;30068;50.986;4.564;2023-06-24T02:03:17;102475.16;;;26.53;52.37
44349;BME280;30068;50.986;4.564;2023-06-24T02:05:42;102483.56;;;26.51;52.54
44349;BME280;30068;50.986;4.564;2023-06-24T02:08:09;102475.16;;;26.53;52.51
44349;BME280;30068;50.986;4.564;2023-06-24T02:10:38;102478.94;;;26.52;52.35
44349;BME280;30068;50.986;4.564;2023-06-24T02:13:04;102463.53;;;26.51;52.56
44349;BME280;30068;50.986;4.564;2023-06-24T02:15:30;102461.84;;;26.50;52.57
44349;BME280;30068;50.986;4.564;2023-06-24T02:17:56;102470.91;;;26.50;52.53
44349;BME280;30068;50.986;4.564;2023-06-24T02:20:22;102477.41;;;26.49;52.50
44349;BME280;30068;50.986;4.564;2023-06-24T02:22:52;102479.31;;;26.49;52.32
44349;BME280;30068;50.986;4.564;2023-06-24T02:25:17;102475.72;;;26.48;52.23
44349;BME280;30068;50.986;4.564;2023-06-24T02:27:42;102475.94;;;26.47;51.92
44349;BME280;30068;50.986;4.564;2023-06-24T02:30:08;102485.81;;;26.48;52.14
44349;BME280;30068;50.986;4.564;2023-06-24T02:32:34;102470.47;;;26.47;52.26
44349;BME280;30068;50.986;4.564;2023-06-24T02:35:03;102478.66;;;26.47;52.25
44349;BME280;30068;50.986;4.564;2023-06-24T02:37:28;102470.63;;;26.45;52.38
44349;BME280;30068;50.986;4.564;2023-06-24T02:39:53;102471.50;;;26.46;52.27
44349;BME280;30068;50.986;4.564;2023-06-24T02:42:18;102476.13;;;26.45;52.13
44349;BME280;30068;50.986;4.564;2023-06-24T02:44:44;102481.59;;;26.45;52.47
44349;BME280;30068;50.986;4.564;2023-06-24T02:47:10;102472.53;;;26.45;52.29
44349;BME280;30068;50.986;4.564;2023-06-24T02:49:36;102481.78;;;26.44;52.10
44349;BME280;30068;50.986;4.564;2023-06-24T02:52:03;102481.78;;;26.44;52.31
44349;BME280;30068;50.986;4.564;2023-06-24T02:54:28;102476.31;;;26.44;52.71
44349;BME280;30068;50.986;4.564;2023-06-24T02:56:54;102484.50;;;26.44;52.34
44349;BME280;30068;50.986;4.564;2023-06-24T02:59:23;102484.69;;;26.42;52.26
44349;BME280;30068;50.986;4.564;2023-06-24T03:01:48;102490.16;;;26.42;52.21
44349;BME280;30068;50.986;4.564;2023-06-24T03:04:14;102483.84;;;26.42;52.21
44349;BME280;30068;50.986;4.564;2023-06-24T03:06:39;102482.19;;;26.41;52.45
44349;BME280;30068;50.986;4.564;2023-06-24T03:09:05;102482.19;;;26.41;52.55
44349;BME280;30068;50.986;4.564;2023-06-24T03:11:32;102476.69;;;26.41;52.12
44349;BME280;30068;50.986;4.564;2023-06-24T03:14:04;102480.25;;;26.41;52.71
44349;BME280;30068;50.986;4.564;2023-06-24T03:16:29;102482.19;;;26.41;52.16
44349;BME280;30068;50.986;4.564;2023-06-24T03:18:55;102489.53;;;26.40;52.25
44349;BME280;30068;50.986;4.564;2023-06-24T03:21:20;102485.94;;;26.40;52.28
44349;BME280;30068;50.986;4.564;2023-06-24T03:23:45;102485.09;;;26.39;52.45
44349;BME280;30068;50.986;4.564;2023-06-24T03:26:10;102495.19;;;26.39;52.18
44349;BME280;30068;50.986;4.564;2023-06-24T03:28:35;102488.00;;;26.38;52.57
44349;BME280;30068;50.986;4.564;2023-06-24T03:31:01;102486.31;;;26.37;52.57
44349;BME280;30068;50.986;4.564;2023-06-24T03:33:26;102481.69;;;26.37;52.08
44349;BME280;30068;50.986;4.564;2023-06-24T03:35:52;102492.63;;;26.37;52.31
44349;BME280;30068;50.986;4.564;2023-06-24T03:38:17;102487.16;;;26.37;52.28
44349;BME280;30068;50.986;4.564;2023-06-24T03:40:43;102490.09;;;26.35;52.46
44349;BME280;30068;50.986;4.564;2023-06-24T03:43:09;102485.47;;;26.36;52.48
44349;BME280;30068;50.986;4.564;2023-06-24T03:45:34;102492.81;;;26.35;52.63
44349;BME280;30068;50.986;4.564;2023-06-24T03:47:59;102489.22;;;26.35;52.47
44349;BME280;30068;50.986;4.564;2023-06-24T03:50:24;102489.22;;;26.35;52.21
44349;BME280;30068;50.986;4.564;2023-06-24T03:52:49;102493.84;;;26.34;52.46
44349;BME280;30068;50.986;4.564;2023-06-24T03:55:14;102499.34;;;26.34;52.71
44349;BME280;30068;50.986;4.564;2023-06-24T03:57:40;102497.66;;;26.33;52.18
44349;BME280;30068;50.986;4.564;2023-06-24T04:00:05;102497.66;;;26.33;52.61
44349;BME280;30068;50.986;4.564;2023-06-24T04:02:38;102498.69;;;26.32;52.40
44349;BME280;30068;50.986;4.564;2023-06-24T04:05:04;102501.44;;;26.32;52.47
44349;BME280;30068;50.986;4.564;2023-06-24T04:07:31;102501.44;;;26.32;52.45
44349;BME280;30068;50.986;4.564;2023-06-24T04:09:56;102500.56;;;26.32;52.37
44349;BME280;30068;50.986;4.564;2023-06-24T04:12:22;102494.25;;;26.31;52.44
44349;BME280;30068;50.986;4.564;2023-06-24T04:14:47;102502.47;;;26.31;52.31
44349;BME280;30068;50.986;4.564;2023-06-24T04:17:12;102498.03;;;26.30;52.19
44349;BME280;30068;50.986;4.564;2023-06-24T04:19:37;102500.75;;;26.30;52.37
44349;BME280;30068;50.986;4.564;2023-06-24T04:22:04;102501.78;;;26.29;52.34
44349;BME280;30068;50.986;4.564;2023-06-24T04:24:29;102501.78;;;26.29;52.38
44349;BME280;30068;50.986;4.564;2023-06-24T04:26:54;102506.41;;;26.29;52.59
44349;BME280;30068;50.986;4.564;2023-06-24T04:29:20;102498.38;;;26.27;52.63
44349;BME280;30068;50.986;4.564;2023-06-24T04:31:45;102503.88;;;26.27;52.31
44349;BME280;30068;50.986;4.564;2023-06-24T04:34:10;102502.19;;;26.26;52.73
44349;BME280;30068;50.986;4.564;2023-06-24T04:36:36;102507.66;;;26.26;52.26
44349;BME280;30068;50.986;4.564;2023-06-24T04:39:01;102500.50;;;26.25;52.82
44349;BME280;30068;50.986;4.564;2023-06-24T04:41:27;102507.66;;;26.26;52.48
44349;BME280;30068;50.986;4.564;2023-06-24T04:43:52;102516.91;;;26.25;52.62
44349;BME280;30068;50.986;4.564;2023-06-24T04:46:17;102505.09;;;26.25;52.47
44349;BME280;30068;50.986;4.564;2023-06-24T04:48:42;102515.22;;;26.24;52.30
44349;BME280;30068;50.986;4.564;2023-06-24T04:51:08;102518.78;;;26.25;52.63
44349;BME280;30068;50.986;4.564;2023-06-24T04:53:33;102512.47;;;26.24;52.54
44349;BME280;30068;50.986;4.564;2023-06-24T04:55:58;102510.72;;;26.23;52.68
44349;BME280;30068;50.986;4.564;2023-06-24T04:58:24;102508.00;;;26.23;52.52
44349;BME280;30068;50.986;4.564;2023-06-24T05:00:49;102513.47;;;26.23;52.32
44349;BME280;30068;50.986;4.564;2023-06-24T05:03:14;102507.16;;;26.23;52.38
44349;BME280;30068;50.986;4.564;2023-06-24T05:05:39;102507.16;;;26.23;52.39
44349;BME280;30068;50.986;4.564;2023-06-24T05:08:04;102509.03;;;26.22;52.85
44349;BME280;30068;50.986;4.564;2023-06-24T05:10:30;102498.47;;;26.19;52.43
44349;BME280;30068;50.986;4.564;2023-06-24T05:12:55;102501.56;;;26.16;52.96
44349;BME280;30068;50.986;4.564;2023-06-24T05:15:20;102502.59;;;26.15;53.13
44349;BME280;30068;50.986;4.564;2023-06-24T05:17:45;102498.16;;;26.14;53.10
44349;BME280;30068;50.986;4.564;2023-06-24T05:20:11;102496.09;;;26.16;53.27
44349;BME280;30068;50.986;4.564;2023-06-24T05:22:36;102492.16;;;26.19;53.21
44349;BME280;30068;50.986;4.564;2023-06-24T05:25:02;102495.53;;;26.21;53.05
44349;BME280;30068;50.986;4.564;2023-06-24T05:27:27;102505.25;;;26.23;53.37
44349;BME280;30068;50.986;4.564;2023-06-24T05:29:52;102493.31;;;26.24;53.11
44349;BME280;30068;50.986;4.564;2023-06-24T05:32:18;102498.59;;;26.26;53.25
44349;BME280;30068;50.986;4.564;2023-06-24T05:34:45;102496.72;;;26.26;53.28
44349;BME280;30068;50.986;4.564;2023-06-24T05:37:10;102495.47;;;26.29;53.07
44349;BME280;30068;50.986;4.564;2023-06-24T05:39:35;102498.03;;;26.30;52.95
44349;BME280;30068;50.986;4.564;2023-06-24T05:42:00;102506.06;;;26.32;53.04
44349;BME280;30068;50.986;4.564;2023-06-24T05:44:26;102509.66;;;26.32;53.27
44349;BME280;30068;50.986;4.564;2023-06-24T05:46:51;102514.09;;;26.33;53.23
44349;BME280;30068;50.986;4.564;2023-06-24T05:49:16;102520.19;;;26.35;53.14
44349;BME280;30068;50.986;4.564;2023-06-24T05:51:41;102509.06;;;26.37;52.74
44349;BME280;30068;50.986;4.564;2023-06-24T05:54:06;102513.50;;;26.38;53.18
44349;BME280;30068;50.986;4.564;2023-06-24T05:56:34;102517.94;;;26.39;52.67
44349;BME280;30068;50.986;4.564;2023-06-24T05:59:01;102521.31;;;26.41;52.86
44349;BME280;30068;50.986;4.564;2023-06-24T06:01:26;102512.06;;;26.42;52.79
44349;BME280;30068;50.986;4.564;2023-06-24T06:03:51;102513.97;;;26.42;53.08
44349;BME280;30068;50.986;4.564;2023-06-24T06:06:17;102517.56;;;26.42;52.87
44349;BME280;30068;50.986;4.564;2023-06-24T06:08:42;102514.63;;;26.44;52.96
44349;BME280;30068;50.986;4.564;2023-06-24T06:11:07;102512.75;;;26.44;52.86
44349;BME280;30068;50.986;4.564;2023-06-24T06:13:32;102516.34;;;26.45;52.87
44349;BME280;30068;50.986;4.564;2023-06-24T06:15:58;102514.44;;;26.45;53.11
44349;BME280;30068;50.986;4.564;2023-06-24T06:18:23;102518.03;;;26.46;52.96
44349;BME280;30068;50.986;4.564;2023-06-24T06:20:48;102517.00;;;26.47;52.67
44349;BME280;30068;50.986;4.564;2023-06-24T06:23:15;102510.47;;;26.48;52.72
44349;BME280;30068;50.986;4.564;2023-06-24T06:25:40;102524.16;;;26.48;52.60
44349;BME280;30068;50.986;4.564;2023-06-24T06:28:05;102532.38;;;26.48;52.73
44349;BME280;30068;50.986;4.564;2023-06-24T06:30:30;102525.84;;;26.49;52.89
44349;BME280;30068;50.986;4.564;2023-06-24T06:32:56;102534.91;;;26.49;52.72
44349;BME280;30068;50.986;4.564;2023-06-24T06:35:21;102536.81;;;26.49;52.63
44349;BME280;30068;50.986;4.564;2023-06-24T06:37:46;102531.31;;;26.49;52.84
44349;BME280;30068;50.986;4.564;2023-06-24T06:40:17;102530.97;;;26.52;52.82
44349;BME280;30068;50.986;4.564;2023-06-24T06:42:42;102532.84;;;26.51;52.68
44349;BME280;30068;50.986;4.564;2023-06-24T06:45:07;102534.75;;;26.51;52.53
44349;BME280;30068;50.986;4.564;2023-06-24T06:47:33;102532.84;;;26.51;53.02
44349;BME280;30068;50.986;4.564;2023-06-24T06:49:58;102537.47;;;26.51;52.68
44349;BME280;30068;50.986;4.564;2023-06-24T06:52:23;102532.00;;;26.51;52.70
44349;BME280;30068;50.986;4.564;2023-06-24T06:54:48;102532.84;;;26.51;52.77
44349;BME280;30068;50.986;4.564;2023-06-24T06:57:13;102539.19;;;26.52;52.78
44349;BME280;30068;50.986;4.564;2023-06-24T06:59:39;102544.66;;;26.52;52.58
44349;BME280;30068;50.986;4.564;2023-06-24T07:02:04;102544.66;;;26.52;52.32
44349;BME280;30068;50.986;4.564;2023-06-24T07:04:30;102541.91;;;26.52;52.31
44349;BME280;30068;50.986;4.564;2023-06-24T07:06:55;102542.94;;;26.51;52.46
44349;BME280;30068;50.986;4.564;2023-06-24T07:09:21;102542.94;;;26.51;52.46
44349;BME280;30068;50.986;4.564;2023-06-24T07:11:46;102545.03;;;26.49;52.51
44349;BME280;30068;50.986;4.564;2023-06-24T07:14:11;102545.88;;;26.49;52.50
44349;BME280;30068;50.986;4.564;2023-06-24T07:16:36;102545.69;;;26.51;52.28
44349;BME280;30068;50.986;4.564;2023-06-24T07:19:02;102547.38;;;26.52;52.57
44349;BME280;30068;50.986;4.564;2023-06-24T07:21:27;102547.38;;;26.52;52.07
44349;BME280;30068;50.986;4.564;2023-06-24T07:23:52;102543.63;;;26.53;52.20
44349;BME280;30068;50.986;4.564;2023-06-24T07:26:18;102542.59;;;26.54;52.33
44349;BME280;30068;50.986;4.564;2023-06-24T07:28:43;102537.09;;;26.54;52.41
44349;BME280;30068;50.986;4.564;2023-06-24T07:31:08;102535.41;;;26.53;52.28
44349;BME280;30068;50.986;4.564;2023-06-24T07:33:33;102540.88;;;26.53;52.51
44349;BME280;30068;50.986;4.564;2023-06-24T07:35:59;102539.84;;;26.54;52.28
44349;BME280;30068;50.986;4.564;2023-06-24T07:38:24;102541.72;;;26.53;52.45
44349;BME280;30068;50.986;4.564;2023-06-24T07:40:49;102544.25;;;26.55;52.30
44349;BME280;30068;50.986;4.564;2023-06-24T07:43:14;102539.84;;;26.54;52.19
44349;BME280;30068;50.986;4.564;2023-06-24T07:45:40;102536.03;;;26.55;52.53
44349;BME280;30068;50.986;4.564;2023-06-24T07:48:05;102545.09;;;26.55;52.28
44349;BME280;30068;50.986;4.564;2023-06-24T07:50:31;102546.81;;;26.56;52.09
44349;BME280;30068;50.986;4.564;2023-06-24T07:52:57;102553.13;;;26.57;52.32
44349;BME280;30068;50.986;4.564;2023-06-24T07:55:22;102543.22;;;26.56;52.51
44349;BME280;30068;50.986;4.564;2023-06-24T07:57:47;102540.47;;;26.56;52.16
44349;BME280;30068;50.986;4.564;2023-06-24T08:00:13;102540.47;;;26.56;52.19
44349;BME280;30068;50.986;4.564;2023-06-24T08:02:40;102536.72;;;26.57;52.00
44349;BME280;30068;50.986;4.564;2023-06-24T08:05:06;102536.72;;;26.57;52.25
44349;BME280;30068;50.986;4.564;2023-06-24T08:07:31;102529.53;;;26.56;52.39
44349;BME280;30068;50.986;4.564;2023-06-24T08:09:56;102531.22;;;26.57;52.09
44349;BME280;30068;50.986;4.564;2023-06-24T08:12:21;102521.13;;;26.57;52.05
44349;BME280;30068;50.986;4.564;2023-06-24T08:14:47;102521.13;;;26.57;52.40
44349;BME280;30068;50.986;4.564;2023-06-24T08:17:12;102528.31;;;26.58;52.15
44349;BME280;30068;50.986;4.564;2023-06-24T08:19:37;102528.13;;;26.60;52.25
44349;BME280;30068;50.986;4.564;2023-06-24T08:22:03;102529.84;;;26.61;51.99
44349;BME280;30068;50.986;4.564;2023-06-24T08:24:29;102521.81;;;26.59;51.96
44349;BME280;30068;50.986;4.564;2023-06-24T08:26:54;102515.28;;;26.60;52.00
44349;BME280;30068;50.986;4.564;2023-06-24T08:29:19;102521.63;;;26.61;52.08
44349;BME280;30068;50.986;4.564;2023-06-24T08:31:44;102516.13;;;26.61;51.85
44349;BME280;30068;50.986;4.564;2023-06-24T08:34:10;102521.63;;;26.61;51.73
44349;BME280;30068;50.986;4.564;2023-06-24T08:36:35;102523.28;;;26.62;51.84
44349;BME280;30068;50.986;4.564;2023-06-24T08:39:02;102526.03;;;26.62;52.04
44349;BME280;30068;50.986;4.564;2023-06-24T08:41:27;102524.13;;;26.62;51.85
44349;BME280;30068;50.986;4.564;2023-06-24T08:43:53;102512.34;;;26.62;52.06
44349;BME280;30068;50.986;4.564;2023-06-24T08:46:21;102522.44;;;26.61;51.87
44349;BME280;30068;50.986;4.564;2023-06-24T08:48:48;102526.03;;;26.62;52.12
44349;BME280;30068;50.986;4.564;2023-06-24T08:51:18;102517.81;;;26.62;51.85
44349;BME280;30068;50.986;4.564;2023-06-24T08:53:45;102515.06;;;26.62;52.06
44349;BME280;30068;50.986;4.564;2023-06-24T08:56:10;102523.97;;;26.64;51.97
44349;BME280;30068;50.986;4.564;2023-06-24T08:58:36;102514.03;;;26.63;51.77
44349;BME280;30068;50.986;4.564;2023-06-24T09:01:02;102518.47;;;26.64;51.78
44349;BME280;30068;50.986;4.564;2023-06-24T09:03:27;102513.00;;;26.64;51.52
44349;BME280;30068;50.986;4.564;2023-06-24T09:05:52;102511.97;;;26.65;51.62
44349;BME280;30068;50.986;4.564;2023-06-24T09:08:18;102514.88;;;26.63;51.59
44349;BME280;30068;50.986;4.564;2023-06-24T09:10:43;102517.44;;;26.65;51.60
44349;BME280;30068;50.986;4.564;2023-06-24T09:13:08;102506.50;;;26.65;51.24
44349;BME280;30068;50.986;4.564;2023-06-24T09:15:34;102513.66;;;26.66;51.26
44349;BME280;30068;50.986;4.564;2023-06-24T09:18:00;102505.44;;;26.66;51.53
44349;BME280;30068;50.986;4.564;2023-06-24T09:20:26;102508.19;;;26.66;51.41
44349;BME280;30068;50.986;4.564;2023-06-24T09:22:51;102499.97;;;26.66;51.46
44349;BME280;30068;50.986;4.564;2023-06-24T09:25:17;102494.31;;;26.67;51.08
44349;BME280;30068;50.986;4.564;2023-06-24T09:27:47;102495.16;;;26.68;51.53
44349;BME280;30068;50.986;4.564;2023-06-24T09:30:18;102491.09;;;26.64;51.29
44349;BME280;30068;50.986;4.564;2023-06-24T09:32:45;102493.47;;;26.67;51.46
44349;BME280;30068;50.986;4.564;2023-06-24T09:35:10;102489.69;;;26.68;51.09
44349;BME280;30068;50.986;4.564;2023-06-24T09:37:35;102492.22;;;26.69;51.23
44349;BME280;30068;50.986;4.564;2023-06-24T09:40:01;102490.31;;;26.70;51.16
44349;BME280;30068;50.986;4.564;2023-06-24T09:42:29;102485.69;;;26.70;51.11
44349;BME280;30068;50.986;4.564;2023-06-24T09:44:55;102485.50;;;26.72;51.02
44349;BME280;30068;50.986;4.564;2023-06-24T09:47:23;102480.03;;;26.72;51.19
44349;BME280;30068;50.986;4.564;2023-06-24T09:49:52;102484.66;;;26.71;51.06
44349;BME280;30068;50.986;4.564;2023-06-24T09:52:17;102471.81;;;26.72;50.92
44349;BME280;30068;50.986;4.564;2023-06-24T09:54:44;102478.16;;;26.72;51.01
44349;BME280;30068;50.986;4.564;2023-06-24T09:57:11;102477.28;;;26.72;51.05
44349;BME280;30068;50.986;4.564;2023-06-24T09:59:38;102473.50;;;26.73;50.76
44349;BME280;30068;50.986;4.564;2023-06-24T10:02:04;102470.78;;;26.73;50.95
44349;BME280;30068;50.986;4.564;2023-06-24T10:04:34;102470.78;;;26.73;51.14
44349;BME280;30068;50.986;4.564;2023-06-24T10:07:00;102483.44;;;26.74;50.80
44349;BME280;30068;50.986;4.564;2023-06-24T10:09:25;102476.06;;;26.74;51.11
44349;BME280;30068;50.986;4.564;2023-06-24T10:11:50;102475.00;;;26.75;50.85
44349;BME280;30068;50.986;4.564;2023-06-24T10:14:16;102468.66;;;26.75;50.70
44349;BME280;30068;50.986;4.564;2023-06-24T10:16:42;102471.41;;;26.75;50.92
44349;BME280;30068;50.986;4.564;2023-06-24T10:19:08;102464.91;;;26.76;50.93
44349;BME280;30068;50.986;4.564;2023-06-24T10:24:27;102461.31;;;26.75;50.79
44349;BME280;30068;50.986;4.564;2023-06-24T10:26:52;102458.56;;;26.75;51.01
44349;BME280;30068;50.986;4.564;2023-06-24T10:29:18;102459.41;;;26.76;50.64
44349;BME280;30068;50.986;4.564;2023-06-24T10:31:52;102447.59;;;26.75;50.73
44349;BME280;30068;50.986;4.564;2023-06-24T10:36:52;102448.47;;;26.76;50.83
44349;BME280;30068;50.986;4.564;2023-06-24T10:44:46;102440.25;;;26.76;50.83
44349;BME280;30068;50.986;4.564;2023-06-24T10:47:11;102426.53;;;26.76;50.69
44349;BME280;30068;50.986;4.564;2023-06-24T10:49:36;102432.88;;;26.77;50.77
44349;BME280;30068;50.986;4.564;2023-06-24T10:52:01;102424.66;;;26.77;50.52
44349;BME280;30068;50.986;4.564;2023-06-24T10:54:27;102432.69;;;26.78;50.59
44349;BME280;30068;50.986;4.564;2023-06-24T10:56:52;102420.03;;;26.77;50.52
44349;BME280;30068;50.986;4.564;2023-06-24T10:59:18;102424.47;;;26.78;50.54
44349;BME280;30068;50.986;4.564;2023-06-24T11:01:52;102417.28;;;26.77;50.38
44349;BME280;30068;50.986;4.564;2023-06-24T11:04:18;102420.88;;;26.78;50.55
44349;BME280;30068;50.986;4.564;2023-06-24T11:06:56;102415.22;;;26.79;50.25
44349;BME280;30068;50.986;4.564;2023-06-24T11:09:21;102417.94;;;26.79;50.28
44349;BME280;30068;50.986;4.564;2023-06-24T11:11:46;102408.88;;;26.79;50.26
44349;BME280;30068;50.986;4.564;2023-06-24T11:14:12;102407.00;;;26.79;50.53
44349;BME280;30068;50.986;4.564;2023-06-24T11:16:37;102407.00;;;26.79;50.29
44349;BME280;30068;50.986;4.564;2023-06-24T11:19:04;102407.00;;;26.79;50.25
44349;BME280;30068;50.986;4.564;2023-06-24T11:21:30;102404.25;;;26.79;50.11
44349;BME280;30068;50.986;4.564;2023-06-24T11:23:59;102408.69;;;26.80;50.20
44349;BME280;30068;50.986;4.564;2023-06-24T11:26:25;102411.44;;;26.80;50.08
44349;BME280;30068;50.986;4.564;2023-06-24T11:28:50;102411.44;;;26.80;50.24
44349;BME280;30068;50.986;4.564;2023-06-24T11:31:15;102406.81;;;26.81;50.22
44349;BME280;30068;50.986;4.564;2023-06-24T11:33:40;102403.22;;;26.80;50.04
44349;BME280;30068;50.986;4.564;2023-06-24T11:36:09;102407.66;;;26.81;49.97
44349;BME280;30068;50.986;4.564;2023-06-24T11:38:35;102407.66;;;26.81;50.18
44349;BME280;30068;50.986;4.564;2023-06-24T11:41:01;102407.66;;;26.81;49.88
44349;BME280;30068;50.986;4.564;2023-06-24T11:43:26;102404.91;;;26.81;49.98
44349;BME280;30068;50.986;4.564;2023-06-24T11:45:52;102404.91;;;26.81;50.14
44349;BME280;30068;50.986;4.564;2023-06-24T11:48:19;102399.44;;;26.81;50.08
44349;BME280;30068;50.986;4.564;2023-06-24T11:50:44;102392.88;;;26.82;50.00
44349;BME280;30068;50.986;4.564;2023-06-24T11:53:17;102395.63;;;26.82;50.20
44349;BME280;30068;50.986;4.564;2023-06-24T11:55:42;102392.88;;;26.82;50.02
44349;BME280;30068;50.986;4.564;2023-06-24T11:58:08;102387.41;;;26.82;50.19
44349;BME280;30068;50.986;4.564;2023-06-24T12:00:40;102383.63;;;26.83;49.97
44349;BME280;30068;50.986;4.564;2023-06-24T12:03:10;102389.97;;;26.84;49.93
44349;BME280;30068;50.986;4.564;2023-06-24T12:05:37;102388.06;;;26.84;49.99
44349;BME280;30068;50.986;4.564;2023-06-24T12:08:04;102387.03;;;26.85;49.75
44349;BME280;30068;50.986;4.564;2023-06-24T12:10:31;102380.72;;;26.85;50.15
44349;BME280;30068;50.986;4.564;2023-06-24T12:12:58;102373.72;;;26.82;49.89
44349;BME280;30068;50.986;4.564;2023-06-24T12:15:24;102381.56;;;26.85;49.79
44349;BME280;30068;50.986;4.564;2023-06-24T12:17:49;102376.06;;;26.85;49.79
44349;BME280;30068;50.986;4.564;2023-06-24T12:20:15;102376.94;;;26.86;49.92
44349;BME280;30068;50.986;4.564;2023-06-24T12:22:40;102373.16;;;26.87;49.86
44349;BME280;30068;50.986;4.564;2023-06-24T12:25:06;102374.84;;;26.88;49.81
44349;BME280;30068;50.986;4.564;2023-06-24T12:27:31;102369.38;;;26.88;49.82
44349;BME280;30068;50.986;4.564;2023-06-24T12:29:56;102371.03;;;26.89;49.97
44349;BME280;30068;50.986;4.564;2023-06-24T12:32:21;102371.03;;;26.89;49.97
44349;BME280;30068;50.986;4.564;2023-06-24T12:34:47;102365.56;;;26.89;49.74
44349;BME280;30068;50.986;4.564;2023-06-24T12:37:14;102363.69;;;26.89;49.72
44349;BME280;30068;50.986;4.564;2023-06-24T12:39:39;102364.38;;;26.91;49.71
44349;BME280;30068;50.986;4.564;2023-06-24T12:42:04;102358.88;;;26.91;49.60
44349;BME280;30068;50.986;4.564;2023-06-24T12:44:31;102359.72;;;26.92;49.50
44349;BME280;30068;50.986;4.564;2023-06-24T12:46:56;102363.13;;;26.94;49.63
44349;BME280;30068;50.986;4.564;2023-06-24T12:49:21;102353.03;;;26.94;49.54
44349;BME280;30068;50.986;4.564;2023-06-24T12:51:46;102362.94;;;26.95;49.41
44349;BME280;30068;50.986;4.564;2023-06-24T12:54:12;102344.56;;;26.96;49.29
44349;BME280;30068;50.986;4.564;2023-06-24T12:56:37;102349.88;;;26.97;49.53
44349;BME280;30068;50.986;4.564;2023-06-24T12:59:02;102347.97;;;26.98;49.50
44349;BME280;30068;50.986;4.564;2023-06-24T13:01:27;102354.31;;;26.98;49.38